createdAt,value
2022-10-05T00:01:52.983Z,8.60
2022-10-05T00:07:18.695Z,8.20
2022-10-05T00:09:49.523Z,8.50
2022-10-05T00:12:18.327Z,8.15
2022-10-05T00:14:46.910Z,8.13
2022-10-05T00:17:19.942Z,8.95
2022-10-05T00:19:51.903Z,9.98
2022-10-05T00:22:20.962Z,8.00
2022-10-05T00:24:50.020Z,7.97
2022-10-05T00:27:25.884Z,7.82
2022-10-05T00:29:57.545Z,8.60
2022-10-05T00:32:23.915Z,8.07
2022-10-05T00:34:50.220Z,7.90
2022-10-05T00:37:16.519Z,7.20
2022-10-05T00:39:43.340Z,9.30
2022-10-05T00:42:44.948Z,9.23
2022-10-05T00:45:25.778Z,8.80
2022-10-05T00:48:18.657Z,8.65
2022-10-05T00:51:11.259Z,6.95
2022-10-05T00:53:43.308Z,9.63
2022-10-05T00:56:28.472Z,8.82
2022-10-05T00:59:05.763Z,8.25
2022-10-05T01:01:38.623Z,7.22
2022-10-05T01:04:38.851Z,7.18
2022-10-05T01:07:35.816Z,6.70
2022-10-05T01:10:16.841Z,6.57
2022-10-05T01:13:04.392Z,7.53
2022-10-05T01:15:49.046Z,6.50
2022-10-05T01:18:31.421Z,5.97
2022-10-05T01:21:19.585Z,6.43
2022-10-05T01:24:12.995Z,8.25
2022-10-05T01:26:48.787Z,7.03
2022-10-05T01:29:30.242Z,7.22
2022-10-05T01:31:58.929Z,6.68
2022-10-05T01:34:44.600Z,9.77
2022-10-05T01:37:19.741Z,7.97
2022-10-05T01:40:20.889Z,7.90
2022-10-05T01:42:56.276Z,7.60
2022-10-05T01:45:53.895Z,6.63
2022-10-05T01:48:41.893Z,7.88
2022-10-05T01:51:26.185Z,7.75
2022-10-05T01:54:09.400Z,5.95
2022-10-05T01:56:58.783Z,7.75
2022-10-05T01:59:33.117Z,8.07
2022-10-05T02:02:08.066Z,9.50
2022-10-05T02:05:01.808Z,9.05
2022-10-05T02:07:52.783Z,8.13
2022-10-05T02:10:19.027Z,8.50
2022-10-05T02:12:48.060Z,10.75
2022-10-05T02:15:19.855Z,8.70
2022-10-05T02:17:50.243Z,8.90
2022-10-05T02:20:28.782Z,12.43
2022-10-05T02:23:00.268Z,7.78
2022-10-05T02:25:32.276Z,8.40
2022-10-05T02:28:10.769Z,9.32
2022-10-05T02:30:47.219Z,7.47
2022-10-05T02:33:26.762Z,8.68
2022-10-05T02:35:53.120Z,11.07
2022-10-05T02:38:50.006Z,12.02
2022-10-05T02:41:35.242Z,12.10
2022-10-05T02:44:23.887Z,15.55
2022-10-05T02:47:05.060Z,18.38
2022-10-05T02:49:53.737Z,16.33
2022-10-05T02:52:39.587Z,17.88
2022-10-05T02:55:13.574Z,25.90
2022-10-05T02:57:53.066Z,18.35
2022-10-05T03:00:23.909Z,17.40
2022-10-05T03:03:06.416Z,18.98
2022-10-05T03:05:46.378Z,15.75
2022-10-05T03:08:31.196Z,18.67
2022-10-05T03:11:30.154Z,17.00
2022-10-05T03:14:25.123Z,9.38
2022-10-05T03:17:13.324Z,12.23
2022-10-05T03:19:54.775Z,7.65
2022-10-05T03:22:51.987Z,10.18
2022-10-05T03:25:36.014Z,9.57
2022-10-05T03:28:26.645Z,7.68
2022-10-05T03:31:13.676Z,8.88
2022-10-05T03:33:44.304Z,9.05
2022-10-05T03:36:16.353Z,9.60
2022-10-05T03:39:00.959Z,6.03
2022-10-05T03:41:42.693Z,8.60
2022-10-05T03:44:26.355Z,6.03
2022-10-05T03:47:07.673Z,6.07
2022-10-05T03:49:45.158Z,6.05
2022-10-05T03:52:18.529Z,5.43
2022-10-05T03:54:54.051Z,5.90
2022-10-05T03:59:58.364Z,13.80
2022-10-05T04:02:29.321Z,17.42
2022-10-05T04:05:04.715Z,6.13
2022-10-05T04:07:50.141Z,17.40
2022-10-05T04:10:25.114Z,17.10
2022-10-05T04:13:01.208Z,17.27
2022-10-05T04:15:37.450Z,16.90
2022-10-05T04:18:11.303Z,7.47
2022-10-05T04:20:52.109Z,7.18
2022-10-05T04:23:21.137Z,9.63
2022-10-05T04:26:20.348Z,7.85
2022-10-05T04:29:00.796Z,13.73
2022-10-05T04:31:56.345Z,14.07
2022-10-05T04:34:44.331Z,17.37
2022-10-05T04:37:22.087Z,18.95
2022-10-05T04:40:12.370Z,35.25
2022-10-05T04:42:52.729Z,16.27
2022-10-05T04:45:44.768Z,19.85
2022-10-05T04:48:24.807Z,9.23
2022-10-05T04:51:21.870Z,15.38
2022-10-05T04:53:54.780Z,11.73
2022-10-05T04:56:55.760Z,13.20
2022-10-05T04:59:45.325Z,11.23
2022-10-05T05:02:24.193Z,17.15
2022-10-05T05:05:08.924Z,15.10
2022-10-05T05:07:48.016Z,23.48
2022-10-05T05:10:45.655Z,13.45
2022-10-05T05:13:39.936Z,8.93
2022-10-05T05:16:26.933Z,10.70
2022-10-05T05:19:01.696Z,17.33
2022-10-05T05:21:49.535Z,12.90
2022-10-05T05:24:33.502Z,13.02
2022-10-05T05:27:27.034Z,9.30
2022-10-05T05:29:59.173Z,10.13
2022-10-05T05:32:58.704Z,12.02
2022-10-05T05:35:40.566Z,10.57
2022-10-05T05:38:31.766Z,11.98
2022-10-05T05:41:10.127Z,12.52
2022-10-05T05:43:53.128Z,18.63
2022-10-05T05:47:01.802Z,12.70
2022-10-05T05:49:35.579Z,13.82
2022-10-05T05:52:13.748Z,13.30
2022-10-05T05:55:00.999Z,16.90
2022-10-05T05:57:49.976Z,19.35
2022-10-05T06:00:21.844Z,16.45
2022-10-05T06:03:03.493Z,14.90
2022-10-05T06:05:47.852Z,15.20
2022-10-05T06:08:23.858Z,12.60
2022-10-05T06:10:58.432Z,10.82
2022-10-05T06:13:30.313Z,12.43
2022-10-05T06:16:23.229Z,15.00
2022-10-05T06:19:04.794Z,15.70
2022-10-05T06:21:47.838Z,12.38
2022-10-05T06:24:20.985Z,24.42
2022-10-05T06:27:25.054Z,18.35
2022-10-05T06:30:04.935Z,19.10
2022-10-05T06:32:33.960Z,13.38
2022-10-05T06:35:19.289Z,13.63
2022-10-05T06:38:17.929Z,14.38
2022-10-05T06:41:04.863Z,20.30
2022-10-05T06:43:46.448Z,17.58
2022-10-05T06:46:57.876Z,15.52
2022-10-05T06:49:50.408Z,14.43
2022-10-05T06:52:38.068Z,15.77
2022-10-05T06:55:35.568Z,15.82
2022-10-05T06:58:27.657Z,17.00
2022-10-05T07:01:10.532Z,14.23
2022-10-05T07:03:46.427Z,15.25
2022-10-05T07:06:12.816Z,18.98
2022-10-05T07:08:54.381Z,16.58
2022-10-05T07:11:44.351Z,16.52
2022-10-05T07:14:19.833Z,15.50
2022-10-05T07:16:55.237Z,15.38
2022-10-05T07:19:45.933Z,16.27
2022-10-05T07:22:46.393Z,19.30
2022-10-05T07:26:06.792Z,16.23
2022-10-05T07:28:39.493Z,20.00
2022-10-05T07:31:16.284Z,19.60
2022-10-05T07:33:57.740Z,17.25
2022-10-05T07:36:54.412Z,15.95
2022-10-05T07:39:55.402Z,17.05
2022-10-05T07:42:46.045Z,16.95
2022-10-05T07:45:39.002Z,18.52
2022-10-05T07:48:22.488Z,17.83
2022-10-05T07:51:32.921Z,17.55
2022-10-05T07:54:21.403Z,16.10
2022-10-05T07:57:06.025Z,16.67
2022-10-05T07:59:43.914Z,15.52
2022-10-05T08:02:25.278Z,17.50
2022-10-05T08:05:03.819Z,18.67
2022-10-05T08:07:34.700Z,15.70
2022-10-05T08:10:29.675Z,14.55
2022-10-05T08:12:59.151Z,19.65
2022-10-05T08:15:42.967Z,14.10
2022-10-05T08:18:37.279Z,17.42
2022-10-05T08:21:08.940Z,18.85
2022-10-05T08:23:51.309Z,19.17
2022-10-05T08:26:30.456Z,20.38
2022-10-05T08:28:59.728Z,18.92
2022-10-05T08:31:34.431Z,17.30
2022-10-05T08:34:20.046Z,19.67
2022-10-05T08:36:54.185Z,25.67
2022-10-05T08:39:24.100Z,18.92
2022-10-05T08:42:15.270Z,18.52
2022-10-05T08:45:09.221Z,18.92
2022-10-05T08:47:54.269Z,18.08
2022-10-05T08:50:48.438Z,19.03
2022-10-05T08:53:28.799Z,20.00
2022-10-05T08:56:48.954Z,17.30
2022-10-05T08:59:45.416Z,19.48
2022-10-05T09:02:14.763Z,22.55
2022-10-05T09:04:57.975Z,19.38
2022-10-05T09:07:37.551Z,16.27
2022-10-05T09:10:40.544Z,17.00
2022-10-05T09:13:31.580Z,15.18
2022-10-05T09:16:35.577Z,13.77
2022-10-05T09:19:39.610Z,11.43
2022-10-05T09:22:30.132Z,11.35
2022-10-05T09:25:08.479Z,14.23
2022-10-05T09:27:43.625Z,11.48
2022-10-05T09:30:24.401Z,11.70
2022-10-05T09:33:08.488Z,11.48
2022-10-05T09:36:02.792Z,10.32
2022-10-05T09:38:43.626Z,9.40
2022-10-05T09:41:28.592Z,10.63
2022-10-05T09:44:22.841Z,8.00
2022-10-05T09:47:18.319Z,7.80
2022-10-05T09:50:03.433Z,7.53
2022-10-05T09:52:41.018Z,7.72
2022-10-05T09:55:33.342Z,8.30
2022-10-05T09:58:20.192Z,9.43
2022-10-05T10:01:29.024Z,12.15
2022-10-05T10:04:09.723Z,10.27
2022-10-05T10:06:42.284Z,10.32
2022-10-05T10:09:33.021Z,6.78
2022-10-05T10:12:29.336Z,7.88
2022-10-05T10:15:16.950Z,8.77
2022-10-05T10:18:01.876Z,9.00
2022-10-05T10:20:53.135Z,7.73
2022-10-05T10:23:29.107Z,7.15
2022-10-05T10:26:17.207Z,7.65
2022-10-05T10:29:16.498Z,7.72
2022-10-05T10:31:55.861Z,8.70
2022-10-05T10:34:37.715Z,7.70
2022-10-05T10:37:35.137Z,6.68
2022-10-05T10:40:26.784Z,7.10
2022-10-05T10:42:56.217Z,6.65
2022-10-05T10:45:48.056Z,6.70
2022-10-05T10:48:29.309Z,11.05
2022-10-05T10:51:22.000Z,6.68
2022-10-05T10:54:28.743Z,5.90
2022-10-05T10:57:17.596Z,5.78
2022-10-05T11:00:06.221Z,6.80
2022-10-05T11:03:05.086Z,6.47
2022-10-05T11:05:56.440Z,5.47
2022-10-05T11:08:50.476Z,6.55
2022-10-05T11:11:31.767Z,7.85
2022-10-05T11:14:03.851Z,6.30
2022-10-05T11:16:46.464Z,5.38
2022-10-05T11:19:13.041Z,6.72
2022-10-05T11:21:42.263Z,5.97
2022-10-05T11:24:19.568Z,5.93
2022-10-05T11:27:29.075Z,5.18
2022-10-05T11:30:20.724Z,7.20
2022-10-05T11:32:52.750Z,5.22
2022-10-05T11:35:35.019Z,5.45
2022-10-05T11:38:03.968Z,8.55
2022-10-05T11:41:08.798Z,4.68
2022-10-05T11:43:56.567Z,7.38
2022-10-05T11:46:50.819Z,5.88
2022-10-05T11:49:29.548Z,5.03
2022-10-05T11:52:22.052Z,4.78
2022-10-05T11:55:10.478Z,5.18
2022-10-05T11:57:56.972Z,5.60
2022-10-05T12:03:19.771Z,4.38
2022-10-05T12:05:56.240Z,3.80
2022-10-05T12:08:31.908Z,5.90
2022-10-05T12:11:04.359Z,3.40
2022-10-05T12:13:45.464Z,4.60
2022-10-05T12:16:28.490Z,3.30
2022-10-05T12:19:18.694Z,4.80
2022-10-05T12:21:56.253Z,4.35
2022-10-05T12:24:46.194Z,4.07
2022-10-05T12:27:20.539Z,3.50
2022-10-05T12:29:59.195Z,4.43
2022-10-05T12:32:29.278Z,3.60
2022-10-05T12:35:13.852Z,4.20
2022-10-05T12:37:47.628Z,5.43
2022-10-05T12:40:32.190Z,3.20
2022-10-05T12:43:02.948Z,3.42
2022-10-05T12:45:47.080Z,4.55
2022-10-05T12:48:42.088Z,3.45
2022-10-05T12:51:49.956Z,2.58
2022-10-05T12:54:27.929Z,2.72
2022-10-05T12:56:57.156Z,3.00
2022-10-05T12:59:38.036Z,3.38
2022-10-05T13:02:35.355Z,3.80
2022-10-05T13:05:10.893Z,5.63
2022-10-05T13:08:10.862Z,3.35
2022-10-05T13:10:41.051Z,4.35
2022-10-05T13:13:37.262Z,4.70
2022-10-05T13:16:15.092Z,3.38
2022-10-05T13:18:58.939Z,3.63
2022-10-05T13:21:32.568Z,3.75
2022-10-05T13:24:12.562Z,3.40
2022-10-05T13:26:44.123Z,3.25
2022-10-05T13:29:51.029Z,3.10
2022-10-05T13:32:24.978Z,4.07
2022-10-05T13:35:14.568Z,2.63
2022-10-05T13:37:59.750Z,5.05
2022-10-05T13:40:38.191Z,2.25
2022-10-05T13:43:38.783Z,3.58
2022-10-05T13:46:17.475Z,3.60
2022-10-05T13:49:20.765Z,4.00
2022-10-05T13:52:19.533Z,5.72
2022-10-05T13:54:55.122Z,4.30
2022-10-05T13:57:49.593Z,6.30
2022-10-05T14:00:24.131Z,6.50
2022-10-05T14:02:56.137Z,2.63
2022-10-05T14:05:25.200Z,3.60
2022-10-05T14:07:53.411Z,3.40
2022-10-05T14:10:34.096Z,5.50
2022-10-05T14:13:02.182Z,2.70
2022-10-05T14:15:32.128Z,3.88
2022-10-05T14:17:59.299Z,3.38
2022-10-05T14:20:27.180Z,3.25
2022-10-05T14:23:02.029Z,8.25
2022-10-05T14:25:30.508Z,6.00
2022-10-05T14:28:28.253Z,3.42
2022-10-05T14:31:13.184Z,3.72
2022-10-05T14:33:39.811Z,3.25
2022-10-05T14:36:16.321Z,3.10
2022-10-05T14:39:01.902Z,6.60
2022-10-05T14:44:13.177Z,4.07
2022-10-05T14:46:51.863Z,2.45
2022-10-05T14:49:22.229Z,3.13
2022-10-05T14:51:50.136Z,6.90
2022-10-05T14:54:45.838Z,3.60
2022-10-05T14:57:44.059Z,3.58
2022-10-05T15:00:13.328Z,3.33
2022-10-05T15:03:03.936Z,3.35
2022-10-05T15:06:08.696Z,3.95
2022-10-05T15:08:56.921Z,4.07
2022-10-05T15:11:37.753Z,2.70
2022-10-05T15:14:15.017Z,3.00
2022-10-05T15:16:42.374Z,4.30
2022-10-05T15:19:23.613Z,4.63
2022-10-05T15:21:56.004Z,5.20
2022-10-05T15:24:26.287Z,5.20
2022-10-05T15:26:56.395Z,4.63
2022-10-05T15:29:30.335Z,3.95
2022-10-05T15:31:56.612Z,18.58
2022-10-05T15:34:44.652Z,10.20
2022-10-05T15:37:18.810Z,6.13
2022-10-05T15:39:57.787Z,9.95
2022-10-05T15:42:55.099Z,4.68
2022-10-05T15:45:43.248Z,5.88
2022-10-05T15:48:36.926Z,4.60
2022-10-05T15:51:27.579Z,3.22
2022-10-05T15:54:43.236Z,3.50
2022-10-05T15:57:24.881Z,3.72
2022-10-05T16:00:03.984Z,4.53
2022-10-05T16:02:58.775Z,5.05
2022-10-05T16:05:56.805Z,4.72
2022-10-05T16:09:07.098Z,4.65
2022-10-05T16:11:53.000Z,4.28
2022-10-05T16:14:27.890Z,5.82
2022-10-05T16:17:05.693Z,4.40
2022-10-05T16:19:59.340Z,4.43
2022-10-05T16:22:42.486Z,5.43
2022-10-05T16:25:14.916Z,3.33
2022-10-05T16:27:50.411Z,4.95
2022-10-05T16:30:20.697Z,4.10
2022-10-05T16:32:54.268Z,4.45
2022-10-05T16:35:36.883Z,3.33
2022-10-05T16:38:25.353Z,3.88
2022-10-05T16:41:18.556Z,4.13
2022-10-05T16:44:00.122Z,3.10
2022-10-05T16:46:41.758Z,4.43
2022-10-05T16:49:18.572Z,3.10
2022-10-05T16:52:00.905Z,5.75
2022-10-05T16:54:42.189Z,3.33
2022-10-05T16:57:24.807Z,5.80
2022-10-05T17:00:04.884Z,3.45
2022-10-05T17:02:39.106Z,4.18
2022-10-05T17:05:44.198Z,3.90
2022-10-05T17:08:29.356Z,5.70
2022-10-05T17:11:18.841Z,2.78
2022-10-05T17:14:06.076Z,3.00
2022-10-05T17:17:20.567Z,4.25
2022-10-05T17:20:15.511Z,5.20
2022-10-05T17:22:52.167Z,5.80
2022-10-05T17:25:44.712Z,5.35
2022-10-05T17:28:37.146Z,6.13
2022-10-05T17:31:21.644Z,5.95
2022-10-05T17:34:26.275Z,6.38
2022-10-05T17:37:35.299Z,7.93
2022-10-05T17:40:29.623Z,5.82
2022-10-05T17:43:01.251Z,7.47
2022-10-05T17:45:33.402Z,7.72
2022-10-05T17:48:06.064Z,7.18
2022-10-05T17:51:02.955Z,8.15
2022-10-05T17:54:02.909Z,5.80
2022-10-05T17:56:47.759Z,3.70
2022-10-05T17:59:44.523Z,4.13
2022-10-05T18:02:19.861Z,3.20
2022-10-05T18:07:22.848Z,2.83
2022-10-05T18:09:55.028Z,3.88
2022-10-05T18:12:21.287Z,4.13
2022-10-05T18:15:01.466Z,6.18
2022-10-05T18:17:51.221Z,3.80
2022-10-05T18:20:26.424Z,3.15
2022-10-05T18:23:02.716Z,6.25
2022-10-05T18:25:45.357Z,3.25
2022-10-05T18:28:43.144Z,5.03
2022-10-05T18:31:32.983Z,6.85
2022-10-05T18:34:26.083Z,5.05
2022-10-05T18:37:21.597Z,8.63
2022-10-05T18:40:04.271Z,4.80
2022-10-05T18:42:42.771Z,6.07
2022-10-05T18:45:23.607Z,4.10
2022-10-05T18:47:57.603Z,3.92
2022-10-05T18:50:31.879Z,4.07
2022-10-05T18:53:21.617Z,2.97
2022-10-05T18:55:57.575Z,3.70
2022-10-05T18:58:40.845Z,4.07
2022-10-05T19:01:33.807Z,4.53
2022-10-05T19:04:22.627Z,4.57
2022-10-05T19:06:55.025Z,5.55
2022-10-05T19:09:57.124Z,5.90
2022-10-05T19:12:47.742Z,4.57
2022-10-05T19:15:34.438Z,5.68
2022-10-05T19:18:35.832Z,4.88
2022-10-05T19:21:11.988Z,5.72
2022-10-05T19:24:05.864Z,3.53
2022-10-05T19:26:46.793Z,5.97
2022-10-05T19:29:44.664Z,3.72
2022-10-05T19:32:28.719Z,6.00
2022-10-05T19:35:24.144Z,4.03
2022-10-05T19:41:15.868Z,2.97
2022-10-05T19:43:50.232Z,3.85
2022-10-05T19:46:32.896Z,3.92
2022-10-05T19:49:00.200Z,2.40
2022-10-05T19:51:35.570Z,3.58
2022-10-05T19:54:13.527Z,4.68
2022-10-05T19:56:49.466Z,3.30
2022-10-05T19:59:21.752Z,3.78
2022-10-05T20:01:54.060Z,4.07
2022-10-05T20:04:41.166Z,3.28
2022-10-05T20:07:21.353Z,3.22
2022-10-05T20:09:58.006Z,3.33
2022-10-05T20:12:50.827Z,2.30
2022-10-05T20:15:40.885Z,4.57
2022-10-05T20:18:50.234Z,3.65
2022-10-05T20:21:35.551Z,4.15
2022-10-05T20:24:14.587Z,9.45
2022-10-05T20:27:03.538Z,3.67
2022-10-05T20:29:32.091Z,2.40
2022-10-05T20:31:58.955Z,4.93
2022-10-05T20:34:25.593Z,3.13
2022-10-05T20:36:52.103Z,3.17
2022-10-05T20:39:21.051Z,3.65
2022-10-05T20:41:47.546Z,4.93
2022-10-05T20:44:13.908Z,3.33
2022-10-05T20:46:41.540Z,5.93
2022-10-05T20:49:10.902Z,3.40
2022-10-05T20:51:39.976Z,4.40
2022-10-05T20:54:07.720Z,2.95
2022-10-05T20:56:34.408Z,4.10
2022-10-05T20:59:00.865Z,4.38
2022-10-05T21:01:28.708Z,4.82
2022-10-05T21:03:55.329Z,4.57
2022-10-05T21:06:22.024Z,6.60
2022-10-05T21:08:50.750Z,3.88
2022-10-05T21:11:17.300Z,6.97
2022-10-05T21:13:47.020Z,3.13
2022-10-05T21:16:16.638Z,3.30
2022-10-05T21:18:44.331Z,3.97
2022-10-05T21:21:11.071Z,4.00
2022-10-05T21:23:37.361Z,3.13
2022-10-05T21:26:03.829Z,3.50
2022-10-05T21:28:31.354Z,5.22
2022-10-05T21:30:58.001Z,3.60
2022-10-05T21:33:24.638Z,4.55
2022-10-05T21:35:51.356Z,6.25
2022-10-05T21:38:17.630Z,4.25
2022-10-05T21:40:45.305Z,5.05
2022-10-05T21:43:13.266Z,3.22
2022-10-05T21:45:40.938Z,3.88
2022-10-05T21:48:07.599Z,3.20
2022-10-05T21:50:34.979Z,5.88
2022-10-05T21:53:04.302Z,3.40
2022-10-05T21:55:33.328Z,4.43
2022-10-05T21:58:01.079Z,5.63
2022-10-05T22:00:27.673Z,3.88
2022-10-05T22:02:53.983Z,3.53
2022-10-05T22:05:20.403Z,6.22
2022-10-05T22:07:46.882Z,4.40
2022-10-05T22:10:13.334Z,3.80
2022-10-05T22:12:42.465Z,3.80
2022-10-05T22:15:09.487Z,3.35
2022-10-05T22:17:36.060Z,5.13
2022-10-05T22:20:03.574Z,6.28
2022-10-05T22:22:30.044Z,6.05
2022-10-05T22:24:56.327Z,2.95
2022-10-05T22:27:25.409Z,4.50
2022-10-05T22:29:52.452Z,3.67
2022-10-05T22:32:18.759Z,5.45
2022-10-05T22:34:45.122Z,3.97
2022-10-05T22:37:13.074Z,5.53
2022-10-05T22:39:40.092Z,3.60
2022-10-05T22:42:06.875Z,3.80
2022-10-05T22:44:33.744Z,4.03
2022-10-05T22:47:00.823Z,4.38
2022-10-05T22:49:27.315Z,4.55
2022-10-05T22:51:54.697Z,4.35
2022-10-05T22:54:21.554Z,5.38
2022-10-05T22:56:47.862Z,4.75
2022-10-05T22:59:14.194Z,4.45
2022-10-05T23:01:40.545Z,10.95
2022-10-05T23:04:08.691Z,2.95
2022-10-05T23:06:34.994Z,4.88
2022-10-05T23:09:01.305Z,4.40
2022-10-05T23:11:28.100Z,4.00
2022-10-05T23:13:56.687Z,4.90
2022-10-05T23:16:26.103Z,4.68
2022-10-05T23:18:53.970Z,5.28
2022-10-05T23:21:21.750Z,5.85
2022-10-05T23:23:50.867Z,3.78
2022-10-05T23:26:20.209Z,8.10
2022-10-05T23:28:47.245Z,4.47
2022-10-05T23:31:15.999Z,3.92
2022-10-05T23:33:42.415Z,5.22
2022-10-05T23:36:23.692Z,4.28
2022-10-05T23:38:50.654Z,4.35
2022-10-05T23:41:17.679Z,4.15
2022-10-05T23:43:44.020Z,5.00
2022-10-05T23:46:10.608Z,6.05
2022-10-05T23:48:39.662Z,4.22
2022-10-05T23:51:07.935Z,5.07
2022-10-05T23:53:34.570Z,5.95
2022-10-05T23:56:01.213Z,4.22
2022-10-05T23:58:28.262Z,3.75
